Time,TemperatureF,DewpointF,PressureIn,WindDirection,WindDirectionDegrees,WindSpeedMPH,WindSpeedGustMPH,Humidity,HourlyPrecipIn,Conditions,Clouds,dailyrainin,SoftwareType,DateUTC
2013-04-02 00:04:00,42.7,26.0,27.45,West,278,0.0,-999.0,52,-99.99,,,0.00,weatherlink.com 1.10,2013-04-02 04:04:00,
2013-04-02 00:19:00,42.2,25.0,27.45,NW,317,1.0,-999.0,50,-99.99,,,0.00,weatherlink.com 1.10,2013-04-02 04:19:00,
2013-04-02 00:34:00,42.0,23.0,27.45,WNW,284,0.0,-999.0,48,-99.99,,,0.00,weatherlink.com 1.10,2013-04-02 04:34:00,
2013-04-02 00:49:00,41.5,23.0,27.45,WSW,241,1.0,-999.0,49,-99.99,,,0.00,weatherlink.com 1.10,2013-04-02 04:49:00,
2013-04-02 01:19:00,40.9,23.0,27.45,West,281,0.0,-999.0,49,-99.99,,,0.00,weatherlink.com 1.10,2013-04-02 05:19:00,
2013-04-02 01:34:00,40.4,22.0,27.45,WNW,282,0.0,-999.0,49,-99.99,,,0.00,weatherlink.com 1.10,2013-04-02 05:34:00,
2013-04-02 01:49:00,40.0,23.0,27.45,West,281,0.0,-999.0,50,-99.99,,,0.00,weatherlink.com 1.10,2013-04-02 05:49:00,
2013-04-02 02:04:00,40.0,22.0,27.45,West,281,1.0,-999.0,48,-99.99,,,0.00,weatherlink.com 1.10,2013-04-02 06:04:00,
2013-04-02 02:19:00,40.0,22.0,27.45,West,281,0.0,-999.0,48,-99.99,,,0.00,weatherlink.com 1.10,2013-04-02 06:19:00,
2013-04-02 02:34:00,39.8,21.0,27.45,West,277,0.0,-999.0,48,-99.99,,,0.00,weatherlink.com 1.10,2013-04-02 06:34:00,
2013-04-02 02:49:00,39.6,21.0,27.45,WNW,302,0.0,-999.0,48,-99.99,,,0.00,weatherlink.com 1.10,2013-04-02 06:49:00,
2013-04-02 03:04:00,39.7,21.0,27.45,West,279,0.0,-999.0,47,-99.99,,,0.00,weatherlink.com 1.10,2013-04-02 07:04:00,
2013-04-02 03:19:00,39.3,21.0,27.45,West,279,0.0,-999.0,49,-99.99,,,0.00,weatherlink.com 1.10,2013-04-02 07:19:00,
2013-04-02 03:34:00,38.6,21.0,27.45,NW,325,0.0,-999.0,50,-99.99,,,0.00,weatherlink.com 1.10,2013-04-02 07:34:00,
2013-04-02 03:49:00,37.9,22.0,27.45,WNW,292,0.0,-999.0,52,-99.99,,,0.00,weatherlink.com 1.10,2013-04-02 07:49:00,
2013-04-02 04:04:00,37.2,20.0,27.45,WNW,292,0.0,-999.0,51,-99.99,,,0.00,weatherlink.com 1.10,2013-04-02 08:04:00,
2013-04-02 04:19:00,36.7,21.0,27.45,WNW,292,0.0,-999.0,53,-99.99,,,0.00,weatherlink.com 1.10,2013-04-02 08:19:00,
2013-04-02 04:34:00,35.6,21.0,27.45,WNW,292,0.0,-999.0,56,-99.99,,,0.00,weatherlink.com 1.10,2013-04-02 08:34:00,
2013-04-02 04:49:00,37.7,20.0,27.45,WNW,302,0.0,-999.0,50,-99.99,,,0.00,weatherlink.com 1.10,2013-04-02 08:49:00,
2013-04-02 05:04:00,38.4,21.0,27.45,NW,308,0.0,-999.0,49,-99.99,,,0.00,weatherlink.com 1.10,2013-04-02 09:04:00,
2013-04-02 05:19:00,38.5,20.0,27.45,NW,308,0.0,-999.0,48,-99.99,,,0.00,weatherlink.com 1.10,2013-04-02 09:19:00,
2013-04-02 05:34:00,38.5,20.0,27.45,WNW,284,3.0,-999.0,48,-99.99,,,0.00,weatherlink.com 1.10,2013-04-02 09:34:00,
2013-04-02 05:49:00,38.9,21.0,27.45,West,271,1.0,-999.0,48,-99.99,,,0.00,weatherlink.com 1.10,2013-04-02 09:49:00,
2013-04-02 06:04:00,38.6,21.0,27.45,WNW,302,1.0,-999.0,49,-99.99,,,0.00,weatherlink.com 1.10,2013-04-02 10:04:00,
2013-04-02 06:19:00,38.3,20.0,27.45,West,273,3.0,-999.0,49,-99.99,,,0.00,weatherlink.com 1.10,2013-04-02 10:19:00,
2013-04-02 06:34:00,38.2,20.0,27.45,WNW,295,0.0,-999.0,49,-99.99,,,0.00,weatherlink.com 1.10,2013-04-02 10:34:00,
2013-04-02 06:49:00,38.1,21.0,27.45,NNW,331,5.0,-999.0,50,-99.99,,,0.00,weatherlink.com 1.10,2013-04-02 10:49:00,
2013-04-02 07:04:00,37.9,20.0,27.45,SW,227,1.0,-999.0,49,-99.99,,,0.00,weatherlink.com 1.10,2013-04-02 11:04:00,
2013-04-02 07:19:00,37.7,20.0,27.45,WNW,284,0.0,-999.0,49,-99.99,,,0.00,weatherlink.com 1.10,2013-04-02 11:19:00,
2013-04-02 07:34:00,38.3,20.0,27.45,WNW,295,1.0,-999.0,48,-99.99,,,0.00,weatherlink.com 1.10,2013-04-02 11:34:00,
2013-04-02 07:49:00,38.4,20.0,27.45,WNW,290,0.0,-999.0,48,-99.99,,,0.00,weatherlink.com 1.10,2013-04-02 11:49:00,
2013-04-02 08:04:00,39.2,20.0,27.45,NW,321,1.0,-999.0,46,-99.99,,,0.00,weatherlink.com 1.10,2013-04-02 12:04:00,
2013-04-02 08:19:00,40.1,20.0,27.45,SW,236,3.0,-999.0,45,-99.99,,,0.00,weatherlink.com 1.10,2013-04-02 12:19:00,
2013-04-02 08:34:00,40.9,21.0,27.45,NNW,327,4.0,-999.0,45,-99.99,,,0.00,weatherlink.com 1.10,2013-04-02 12:34:00,
2013-04-02 08:49:00,41.5,20.0,27.45,NW,309,0.0,-999.0,43,-99.99,,,0.00,weatherlink.com 1.10,2013-04-02 12:49:00,
2013-04-02 09:05:00,41.9,21.0,27.45,SW,230,3.0,-999.0,43,-99.99,,,0.00,weatherlink.com 1.10,2013-04-02 13:05:00,
2013-04-02 09:20:00,42.2,21.0,27.45,West,268,7.0,-999.0,43,-99.99,,,0.00,weatherlink.com 1.10,2013-04-02 13:20:00,
2013-04-02 09:35:00,43.1,21.0,27.45,WNW,300,5.0,-999.0,41,-99.99,,,0.00,weatherlink.com 1.10,2013-04-02 13:35:00,
2013-04-02 09:50:00,43.3,21.0,27.45,West,261,2.0,-999.0,41,-99.99,,,0.00,weatherlink.com 1.10,2013-04-02 13:50:00,
2013-04-02 10:05:00,43.6,21.0,27.45,South,187,2.0,-999.0,41,-99.99,,,0.00,weatherlink.com 1.10,2013-04-02 14:05:00,
2013-04-02 10:20:00,43.9,21.0,27.45,WNW,295,0.0,-999.0,40,-99.99,,,0.00,weatherlink.com 1.10,2013-04-02 14:20:00,
2013-04-02 10:35:00,43.8,20.0,27.45,NNW,337,7.0,-999.0,38,-99.99,,,0.00,weatherlink.com 1.10,2013-04-02 14:35:00,
2013-04-02 10:50:00,44.1,19.0,27.45,NW,317,4.0,-999.0,36,-99.99,,,0.00,weatherlink.com 1.10,2013-04-02 14:50:00,
2013-04-02 11:05:00,44.6,20.0,27.45,WSW,240,2.0,-999.0,38,-99.99,,,0.00,weatherlink.com 1.10,2013-04-02 15:05:00,
2013-04-02 11:20:00,44.7,20.0,27.45,WNW,300,4.0,-999.0,38,-99.99,,,0.00,weatherlink.com 1.10,2013-04-02 15:20:00,
2013-04-02 11:35:00,45.8,21.0,27.45,NW,308,4.0,-999.0,37,-99.99,,,0.00,weatherlink.com 1.10,2013-04-02 15:35:00,
2013-04-02 11:50:00,45.9,20.0,27.45,WNW,292,1.0,-999.0,36,-99.99,,,0.00,weatherlink.com 1.10,2013-04-02 15:50:00,
2013-04-02 12:05:00,46.5,21.0,27.45,NW,317,2.0,-999.0,36,-99.99,,,0.00,weatherlink.com 1.10,2013-04-02 16:05:00,
2013-04-02 12:20:00,46.7,20.0,27.45,NW,304,6.0,-999.0,35,-99.99,,,0.00,weatherlink.com 1.10,2013-04-02 16:20:00,
2013-04-02 12:50:00,46.9,20.0,27.45,NW,306,4.0,-999.0,35,-99.99,,,0.00,weatherlink.com 1.10,2013-04-02 16:50:00,
2013-04-02 13:05:00,47.6,22.0,27.45,NW,320,3.0,-999.0,36,-99.99,,,0.00,weatherlink.com 1.10,2013-04-02 17:05:00,
2013-04-02 13:20:00,47.6,20.0,27.45,SSW,198,0.0,-999.0,34,-99.99,,,0.00,weatherlink.com 1.10,2013-04-02 17:20:00,
2013-04-02 13:35:00,49.0,22.0,27.45,SW,234,2.0,-999.0,35,-99.99,,,0.00,weatherlink.com 1.10,2013-04-02 17:35:00,
2013-04-02 13:50:00,49.0,21.0,27.45,WNW,290,2.0,-999.0,33,-99.99,,,0.00,weatherlink.com 1.10,2013-04-02 17:50:00,
2013-04-02 14:05:00,49.2,21.0,27.45,NW,324,1.0,-999.0,33,-99.99,,,0.00,weatherlink.com 1.10,2013-04-02 18:05:00,
2013-04-02 14:20:00,49.6,21.0,27.45,NW,325,3.0,-999.0,32,-99.99,,,0.00,weatherlink.com 1.10,2013-04-02 18:20:00,
2013-04-02 14:35:00,49.0,20.0,27.45,NNW,329,1.0,-999.0,32,-99.99,,,0.00,weatherlink.com 1.10,2013-04-02 18:35:00,
2013-04-02 15:05:00,49.2,21.0,27.45,West,265,0.0,-999.0,33,-99.99,,,0.00,weatherlink.com 1.10,2013-04-02 19:05:00,
2013-04-02 15:20:00,50.2,21.0,27.45,West,273,1.0,-999.0,32,-99.99,,,0.00,weatherlink.com 1.10,2013-04-02 19:20:00,
2013-04-02 15:35:00,50.0,21.0,27.45,WSW,246,3.0,-999.0,32,-99.99,,,0.00,weatherlink.com 1.10,2013-04-02 19:35:00,
2013-04-02 15:50:00,50.0,20.0,27.45,NNW,340,8.0,-999.0,31,-99.99,,,0.00,weatherlink.com 1.10,2013-04-02 19:50:00,
2013-04-02 16:05:00,50.0,20.0,27.45,WNW,295,1.0,-999.0,31,-99.99,,,0.00,weatherlink.com 1.10,2013-04-02 20:05:00,
2013-04-02 16:20:00,50.8,19.0,27.45,NW,304,3.0,-999.0,29,-99.99,,,0.00,weatherlink.com 1.10,2013-04-02 20:20:00,
2013-04-02 16:35:00,50.6,21.0,27.45,NW,321,2.0,-999.0,31,-99.99,,,0.00,weatherlink.com 1.10,2013-04-02 20:35:00,
2013-04-02 16:50:00,50.5,21.0,27.45,WSW,254,5.0,-999.0,31,-99.99,,,0.00,weatherlink.com 1.10,2013-04-02 20:50:00,
2013-04-02 17:05:00,50.5,20.0,27.45,SSW,202,3.0,-999.0,30,-99.99,,,0.00,weatherlink.com 1.10,2013-04-02 21:05:00,
2013-04-02 17:20:00,50.0,20.0,27.45,West,267,2.0,-999.0,30,-99.99,,,0.00,weatherlink.com 1.10,2013-04-02 21:20:00,
2013-04-02 17:35:00,49.6,20.0,27.45,WNW,284,3.0,-999.0,31,-99.99,,,0.00,weatherlink.com 1.10,2013-04-02 21:35:00,
2013-04-02 17:50:00,49.7,21.0,27.45,WSW,237,0.0,-999.0,32,-99.99,,,0.00,weatherlink.com 1.10,2013-04-02 21:50:00,
2013-04-02 18:05:00,49.5,20.0,27.45,SSE,149,2.0,-999.0,31,-99.99,,,0.00,weatherlink.com 1.10,2013-04-02 22:05:00,
2013-04-02 18:20:00,48.9,19.0,27.45,NW,316,1.0,-999.0,31,-99.99,,,0.00,weatherlink.com 1.10,2013-04-02 22:20:00,
2013-04-02 18:35:00,48.3,19.0,27.45,SSW,213,3.0,-999.0,31,-99.99,,,0.00,weatherlink.com 1.10,2013-04-02 22:35:00,
2013-04-02 18:50:00,47.9,19.0,27.45,West,267,10.0,-999.0,32,-99.99,,,0.00,weatherlink.com 1.10,2013-04-02 22:50:00,
2013-04-02 19:05:00,47.3,19.0,27.45,NW,326,3.0,-999.0,32,-99.99,,,0.00,weatherlink.com 1.10,2013-04-02 23:05:00,
2013-04-02 19:20:00,46.5,18.0,27.45,NW,325,0.0,-999.0,32,-99.99,,,0.00,weatherlink.com 1.10,2013-04-02 23:20:00,
2013-04-02 19:35:00,46.0,18.0,27.45,West,275,0.0,-999.0,33,-99.99,,,0.00,weatherlink.com 1.10,2013-04-02 23:35:00,
2013-04-02 19:50:00,45.6,19.0,27.45,WNW,286,1.0,-999.0,34,-99.99,,,0.00,weatherlink.com 1.10,2013-04-02 23:50:00,
2013-04-02 20:05:00,45.1,18.0,27.45,West,269,2.0,-999.0,34,-99.99,,,0.00,weatherlink.com 1.10,2013-04-03 00:05:00,
2013-04-02 20:20:00,44.8,19.0,27.45,West,273,0.0,-999.0,35,-99.99,,,0.00,weatherlink.com 1.10,2013-04-03 00:20:00,
2013-04-02 20:35:00,43.8,19.0,27.45,West,273,0.0,-999.0,37,-99.99,,,0.00,weatherlink.com 1.10,2013-04-03 00:35:00,
2013-04-02 20:50:00,43.2,19.0,27.45,West,272,0.0,-999.0,38,-99.99,,,0.00,weatherlink.com 1.10,2013-04-03 00:50:00,
2013-04-02 21:05:00,43.0,19.0,27.45,West,272,0.0,-999.0,39,-99.99,,,0.00,weatherlink.com 1.10,2013-04-03 01:05:00,
2013-04-02 21:21:00,42.8,19.0,27.45,West,273,0.0,-999.0,39,-99.99,,,0.00,weatherlink.com 1.10,2013-04-03 01:21:00,
2013-04-02 21:35:00,42.4,19.0,27.45,WNW,283,0.0,-999.0,40,-99.99,,,0.00,weatherlink.com 1.10,2013-04-03 01:35:00,
2013-04-02 21:50:00,42.2,19.0,27.45,NNE,15,2.0,-999.0,39,-99.99,,,0.00,weatherlink.com 1.10,2013-04-03 01:50:00,
2013-04-02 22:05:00,41.8,19.0,27.45,West,279,0.0,-999.0,40,-99.99,,,0.00,weatherlink.com 1.10,2013-04-03 02:05:00,
2013-04-02 22:21:00,41.5,19.0,27.58,West,281,0.0,-999.0,40,-99.99,,,0.00,weatherlink.com 1.10,2013-04-03 02:21:00,
2013-04-02 22:36:00,41.0,19.0,27.58,NNW,331,1.0,-999.0,41,-99.99,,,0.00,weatherlink.com 1.10,2013-04-03 02:36:00,
2013-04-02 22:51:00,41.0,19.0,27.85,SSW,199,1.0,-999.0,41,-99.99,,,0.00,weatherlink.com 1.10,2013-04-03 02:51:00,
2013-04-02 23:06:00,40.9,19.0,27.85,NW,307,0.0,-999.0,41,-99.99,,,0.00,weatherlink.com 1.10,2013-04-03 03:06:00,
2013-04-02 23:21:00,41.0,19.0,27.85,SW,229,0.0,-999.0,41,-99.99,,,0.00,weatherlink.com 1.10,2013-04-03 03:21:00,
2013-04-02 23:51:00,41.0,19.0,27.85,West,267,3.0,-999.0,41,-99.99,,,0.00,weatherlink.com 1.10,2013-04-03 03:51:00,